createdAt,value
2022-10-06T00:01:22.167Z,22.35
2022-10-06T00:03:50.881Z,25.58
2022-10-06T00:06:20.468Z,23.60
2022-10-06T00:08:49.288Z,18.60
2022-10-06T00:11:18.896Z,20.90
2022-10-06T00:13:47.577Z,20.27
2022-10-06T00:16:22.650Z,16.48
2022-10-06T00:18:51.659Z,17.15
2022-10-06T00:21:20.365Z,13.20
2022-10-06T00:23:48.845Z,14.20
2022-10-06T00:26:17.757Z,14.15
2022-10-06T00:28:48.705Z,12.38
2022-10-06T00:31:19.975Z,16.08
2022-10-06T00:33:50.582Z,14.40
2022-10-06T00:36:19.597Z,17.90
2022-10-06T00:38:48.424Z,12.55
2022-10-06T00:41:19.292Z,11.63
2022-10-06T00:43:52.546Z,12.68
2022-10-06T00:46:36.035Z,13.27
2022-10-06T00:49:12.941Z,14.57
2022-10-06T00:51:47.061Z,15.77
2022-10-06T00:54:17.180Z,16.42
2022-10-06T00:56:46.445Z,12.95
2022-10-06T00:59:17.781Z,11.53
2022-10-06T01:01:57.044Z,13.63
2022-10-06T01:04:27.208Z,13.60
2022-10-06T01:07:00.117Z,11.30
2022-10-06T01:09:31.387Z,11.25
2022-10-06T01:12:05.482Z,13.13
2022-10-06T01:14:35.067Z,10.70
2022-10-06T01:17:13.290Z,10.23
2022-10-06T01:19:51.892Z,10.20
2022-10-06T01:22:30.968Z,9.93
2022-10-06T01:25:00.155Z,11.77
2022-10-06T01:27:32.748Z,11.70
2022-10-06T01:30:03.441Z,10.77
2022-10-06T01:32:39.337Z,12.25
2022-10-06T01:35:10.481Z,13.20
2022-10-06T01:37:40.558Z,15.90
2022-10-06T01:40:10.138Z,15.68
2022-10-06T01:42:38.942Z,9.45
2022-10-06T01:45:09.172Z,16.35
2022-10-06T01:47:37.946Z,9.68
2022-10-06T01:50:08.387Z,8.17
2022-10-06T01:52:37.673Z,7.55
2022-10-06T01:55:09.605Z,8.35
2022-10-06T01:57:41.049Z,9.57
2022-10-06T02:00:13.003Z,8.45
2022-10-06T02:02:41.477Z,7.93
2022-10-06T02:05:10.954Z,10.10
2022-10-06T02:07:40.367Z,11.15
2022-10-06T02:10:11.047Z,5.95
2022-10-06T02:12:39.802Z,7.40
2022-10-06T02:15:10.619Z,5.43
2022-10-06T02:17:40.389Z,9.75
2022-10-06T02:20:10.552Z,8.77
2022-10-06T02:22:40.704Z,6.88
2022-10-06T02:25:12.411Z,5.95
2022-10-06T02:27:41.185Z,6.40
2022-10-06T02:30:12.111Z,7.57
2022-10-06T02:32:43.421Z,6.72
2022-10-06T02:35:13.859Z,7.43
2022-10-06T02:37:43.013Z,10.02
2022-10-06T02:40:13.186Z,5.20
2022-10-06T02:42:41.883Z,6.43
2022-10-06T02:45:11.198Z,7.20
2022-10-06T02:47:40.107Z,5.90
2022-10-06T02:50:10.351Z,6.95
2022-10-06T02:52:42.985Z,7.03
2022-10-06T02:55:13.723Z,7.38
2022-10-06T02:57:42.400Z,9.07
2022-10-06T03:00:15.431Z,10.65
2022-10-06T03:02:44.077Z,8.70
2022-10-06T03:05:12.620Z,7.77
2022-10-06T03:07:41.277Z,7.95
2022-10-06T03:10:12.190Z,12.32
2022-10-06T03:12:40.659Z,12.98
2022-10-06T03:15:10.271Z,13.63
2022-10-06T03:17:38.992Z,9.40
2022-10-06T03:20:09.355Z,13.95
2022-10-06T03:22:38.031Z,9.90
2022-10-06T03:25:07.781Z,7.18
2022-10-06T03:27:37.655Z,6.45
2022-10-06T03:30:07.787Z,8.03
2022-10-06T03:32:36.262Z,8.00
2022-10-06T03:35:04.900Z,11.07
2022-10-06T03:37:33.874Z,8.57
2022-10-06T03:40:02.323Z,9.18
2022-10-06T03:42:32.461Z,8.77
2022-10-06T03:45:02.315Z,7.85
2022-10-06T03:47:31.924Z,6.03
2022-10-06T03:50:00.582Z,7.75
2022-10-06T03:52:29.053Z,8.55
2022-10-06T03:54:57.480Z,7.43
2022-10-06T03:57:26.158Z,12.20
2022-10-06T03:59:55.176Z,9.02
2022-10-06T04:02:25.102Z,10.20
2022-10-06T04:04:53.819Z,8.38
2022-10-06T04:07:22.513Z,8.63
2022-10-06T04:09:51.186Z,8.15
2022-10-06T04:12:19.633Z,7.00
2022-10-06T04:14:48.332Z,5.57
2022-10-06T04:17:17.017Z,9.52
2022-10-06T04:19:47.061Z,10.60
2022-10-06T04:22:15.730Z,11.63
2022-10-06T04:24:44.385Z,11.60
2022-10-06T04:27:30.989Z,13.80
2022-10-06T04:29:59.914Z,9.30
2022-10-06T04:32:29.627Z,7.53
2022-10-06T04:34:59.681Z,7.63
2022-10-06T04:37:29.043Z,9.07
2022-10-06T04:39:57.491Z,8.60
2022-10-06T04:42:26.123Z,7.57
2022-10-06T04:44:54.567Z,10.17
2022-10-06T04:47:23.283Z,11.30
2022-10-06T04:49:51.780Z,11.68
2022-10-06T04:52:23.206Z,10.13
2022-10-06T04:54:52.037Z,12.27
2022-10-06T04:57:20.731Z,12.70
2022-10-06T05:00:14.641Z,12.70
2022-10-06T05:02:43.659Z,14.18
2022-10-06T05:05:12.126Z,11.98
2022-10-06T05:07:44.487Z,11.45
2022-10-06T05:10:13.819Z,10.07
2022-10-06T05:12:42.502Z,9.25
2022-10-06T05:15:12.124Z,10.15
2022-10-06T05:17:40.583Z,8.55
2022-10-06T05:20:11.342Z,7.82
2022-10-06T05:22:41.207Z,11.57
2022-10-06T05:25:10.966Z,8.50
2022-10-06T05:27:39.447Z,9.98
2022-10-06T05:30:09.545Z,9.77
2022-10-06T05:32:38.219Z,22.27
2022-10-06T05:35:08.288Z,44.83
2022-10-06T05:37:36.710Z,39.15
2022-10-06T05:40:08.078Z,45.03
2022-10-06T05:42:36.735Z,36.30
2022-10-06T05:45:06.103Z,27.55
2022-10-06T05:47:34.557Z,24.57
2022-10-06T05:50:03.661Z,20.27
2022-10-06T05:52:32.126Z,15.63
2022-10-06T05:55:00.774Z,16.48
2022-10-06T05:57:31.102Z,12.95
2022-10-06T05:59:59.566Z,9.07
2022-10-06T06:02:28.301Z,11.32
2022-10-06T06:04:56.842Z,12.45
2022-10-06T06:07:25.551Z,13.05
2022-10-06T06:09:54.293Z,17.23
2022-10-06T06:12:22.945Z,15.50
2022-10-06T06:15:10.289Z,14.60
2022-10-06T06:17:38.756Z,12.70
2022-10-06T06:20:08.990Z,13.60
2022-10-06T06:22:37.439Z,16.00
2022-10-06T06:25:06.931Z,22.83
2022-10-06T06:27:35.930Z,21.67
2022-10-06T06:30:07.051Z,20.45
2022-10-06T06:32:35.866Z,18.25
2022-10-06T06:35:04.791Z,17.60
2022-10-06T06:37:33.417Z,17.47
2022-10-06T06:40:01.867Z,16.55
2022-10-06T06:42:30.555Z,14.15
2022-10-06T06:44:58.994Z,19.98
2022-10-06T06:47:28.807Z,18.38
2022-10-06T06:49:59.202Z,17.60
2022-10-06T06:52:28.206Z,21.48
2022-10-06T06:54:57.223Z,20.48
2022-10-06T06:57:26.229Z,19.20
2022-10-06T06:59:57.011Z,20.10
2022-10-06T07:02:29.929Z,18.83
2022-10-06T07:04:59.811Z,20.00
2022-10-06T07:07:28.275Z,22.75
2022-10-06T07:09:56.975Z,19.65
2022-10-06T07:12:25.995Z,21.33
2022-10-06T07:15:12.206Z,22.20
2022-10-06T07:17:58.400Z,15.27
2022-10-06T07:20:45.803Z,19.65
2022-10-06T07:23:37.455Z,31.52
2022-10-06T07:26:06.116Z,22.25
2022-10-06T07:28:34.858Z,17.90
2022-10-06T07:31:04.810Z,20.65
2022-10-06T07:33:34.437Z,23.35
2022-10-06T07:36:04.462Z,23.02
2022-10-06T07:38:33.724Z,19.55
2022-10-06T07:43:53.982Z,29.25
2022-10-06T07:46:22.817Z,17.77
2022-10-06T07:48:51.648Z,23.13
2022-10-06T07:51:22.175Z,27.60
2022-10-06T07:53:51.388Z,14.03
2022-10-06T07:56:21.377Z,14.75
2022-10-06T07:58:51.325Z,18.92
2022-10-06T08:01:21.797Z,19.10
2022-10-06T08:03:50.722Z,15.85
2022-10-06T08:06:23.461Z,14.47
2022-10-06T08:08:53.887Z,13.20
2022-10-06T08:11:22.874Z,14.43
2022-10-06T08:13:52.393Z,18.17
2022-10-06T08:16:24.572Z,14.30
2022-10-06T08:18:55.938Z,18.77
2022-10-06T08:21:28.334Z,14.90
2022-10-06T08:23:59.445Z,13.88
2022-10-06T08:26:30.194Z,15.88
2022-10-06T08:29:03.564Z,14.85
2022-10-06T08:31:33.692Z,13.90
2022-10-06T08:34:02.760Z,13.45
2022-10-06T08:36:32.913Z,17.52
2022-10-06T08:39:01.805Z,18.35
2022-10-06T08:41:43.215Z,13.05
2022-10-06T08:44:30.672Z,14.37
2022-10-06T08:47:03.970Z,12.35
2022-10-06T08:49:39.978Z,12.02
2022-10-06T08:52:26.447Z,12.05
2022-10-06T08:55:09.451Z,11.50
2022-10-06T08:57:47.138Z,12.07
2022-10-06T09:00:22.075Z,18.80
2022-10-06T09:02:52.351Z,12.80
2022-10-06T09:05:28.162Z,10.10
2022-10-06T09:08:25.171Z,11.25
2022-10-06T09:11:13.967Z,12.17
2022-10-06T09:13:52.393Z,8.45
2022-10-06T09:16:29.492Z,10.65
2022-10-06T09:19:09.885Z,9.23
2022-10-06T09:21:46.847Z,12.98
2022-10-06T09:24:19.910Z,13.10
2022-10-06T09:26:52.144Z,11.48
2022-10-06T09:29:21.002Z,11.05
2022-10-06T09:31:50.535Z,10.68
2022-10-06T09:34:38.573Z,11.52
2022-10-06T09:37:11.171Z,9.50
2022-10-06T09:39:44.323Z,7.90
2022-10-06T09:42:21.932Z,10.13
2022-10-06T09:45:04.157Z,9.43
2022-10-06T09:47:40.377Z,10.13
2022-10-06T09:50:22.886Z,12.10
2022-10-06T09:53:12.413Z,13.93
2022-10-06T09:55:53.700Z,12.98
2022-10-06T09:58:34.509Z,9.05
2022-10-06T10:01:06.843Z,15.70
2022-10-06T10:06:42.046Z,13.02
2022-10-06T10:09:29.315Z,12.75
2022-10-06T10:12:28.911Z,7.78
2022-10-06T10:15:02.126Z,13.82
2022-10-06T10:17:47.357Z,12.03
2022-10-06T10:20:29.541Z,9.88
2022-10-06T10:23:01.915Z,9.77
2022-10-06T10:26:09.118Z,12.30
2022-10-06T10:29:00.433Z,14.43
2022-10-06T10:31:43.911Z,8.93
2022-10-06T10:34:45.420Z,10.98
2022-10-06T10:37:18.587Z,9.98
2022-10-06T10:39:57.549Z,12.30
2022-10-06T10:42:35.166Z,10.52
2022-10-06T10:45:17.121Z,10.83
2022-10-06T10:47:48.791Z,10.32
2022-10-06T10:50:28.265Z,12.43
2022-10-06T10:53:08.514Z,13.23
2022-10-06T10:55:43.064Z,10.52
2022-10-06T10:58:21.532Z,10.40
2022-10-06T11:00:58.740Z,11.15
2022-10-06T11:03:27.395Z,11.48
2022-10-06T11:06:29.169Z,9.65
2022-10-06T11:09:07.211Z,9.13
2022-10-06T11:12:00.232Z,13.93
2022-10-06T11:14:51.924Z,8.68
2022-10-06T11:17:45.523Z,10.50
2022-10-06T11:20:34.825Z,13.38
2022-10-06T11:23:31.642Z,13.45
2022-10-06T11:26:11.054Z,16.63
2022-10-06T11:28:50.091Z,9.75
2022-10-06T11:31:35.040Z,9.63
2022-10-06T11:34:07.738Z,10.02
2022-10-06T11:37:03.766Z,9.68
2022-10-06T11:39:45.519Z,12.90
2022-10-06T11:42:26.509Z,9.85
2022-10-06T11:45:03.995Z,13.40
2022-10-06T11:47:44.786Z,13.40
2022-10-06T11:50:37.874Z,14.52
2022-10-06T11:53:07.788Z,10.77
2022-10-06T11:55:36.273Z,8.90
2022-10-06T11:58:41.373Z,12.32
2022-10-06T12:01:53.532Z,10.55
2022-10-06T12:04:24.781Z,8.75
2022-10-06T12:07:03.777Z,9.27
2022-10-06T12:09:52.290Z,9.15
2022-10-06T12:13:07.088Z,13.60
2022-10-06T12:19:07.514Z,13.55
2022-10-06T12:21:55.511Z,11.47
2022-10-06T12:24:39.086Z,8.95
2022-10-06T12:27:31.834Z,11.18
2022-10-06T12:30:16.326Z,10.00
2022-10-06T12:32:53.229Z,14.25
2022-10-06T12:35:30.465Z,10.20
2022-10-06T12:38:05.011Z,11.48
2022-10-06T12:40:55.716Z,11.50
2022-10-06T12:43:35.117Z,8.13
2022-10-06T12:46:15.892Z,8.57
2022-10-06T12:48:57.453Z,8.80
2022-10-06T12:51:34.709Z,12.27
2022-10-06T12:54:15.489Z,10.02
2022-10-06T12:56:58.940Z,10.10
2022-10-06T12:59:32.226Z,10.60
2022-10-06T13:02:06.061Z,10.93
2022-10-06T13:04:40.719Z,9.13
2022-10-06T13:07:18.419Z,10.65
2022-10-06T13:09:50.080Z,9.48
2022-10-06T13:12:27.916Z,10.75
2022-10-06T13:15:18.011Z,14.33
2022-10-06T13:17:51.623Z,10.60
2022-10-06T13:20:42.988Z,8.40
2022-10-06T13:23:28.758Z,10.80
2022-10-06T13:26:00.223Z,10.38
2022-10-06T13:28:47.143Z,10.73
2022-10-06T13:31:23.073Z,11.73
2022-10-06T13:33:56.618Z,9.73
2022-10-06T13:36:26.346Z,9.50
2022-10-06T13:38:54.941Z,10.13
2022-10-06T13:41:31.038Z,9.40
2022-10-06T13:44:05.741Z,10.77
2022-10-06T13:46:42.957Z,9.65
2022-10-06T13:49:22.902Z,10.07
2022-10-06T13:51:55.051Z,9.02
2022-10-06T13:54:30.779Z,7.67
2022-10-06T13:57:00.020Z,8.55
2022-10-06T13:59:37.376Z,9.60
2022-10-06T14:02:32.633Z,10.00
2022-10-06T14:05:31.830Z,8.07
2022-10-06T14:08:03.811Z,9.73
2022-10-06T14:10:46.232Z,15.10
2022-10-06T14:13:19.875Z,11.18
2022-10-06T14:15:53.105Z,10.93
2022-10-06T14:18:27.033Z,9.88
2022-10-06T14:20:57.668Z,9.87
2022-10-06T14:23:43.328Z,8.55
2022-10-06T14:26:14.463Z,10.20
2022-10-06T14:28:48.655Z,9.05
2022-10-06T14:31:18.623Z,9.55
2022-10-06T14:33:49.259Z,8.90
2022-10-06T14:36:22.686Z,7.78
2022-10-06T14:38:53.469Z,6.30
2022-10-06T14:41:27.596Z,6.90
2022-10-06T14:43:56.791Z,10.05
2022-10-06T14:46:27.514Z,6.70
2022-10-06T14:48:57.397Z,7.93
2022-10-06T14:51:27.597Z,8.25
2022-10-06T14:53:58.823Z,8.02
2022-10-06T14:56:31.950Z,9.70
2022-10-06T14:59:04.205Z,11.07
2022-10-06T15:01:37.304Z,9.20
2022-10-06T15:04:08.830Z,5.88
2022-10-06T15:06:54.664Z,7.97
2022-10-06T15:09:24.091Z,10.82
2022-10-06T15:11:54.061Z,6.20
2022-10-06T15:14:23.743Z,8.38
2022-10-06T15:16:54.971Z,10.88
2022-10-06T15:19:23.425Z,7.78
2022-10-06T15:21:52.135Z,8.30
2022-10-06T15:24:21.693Z,10.77
2022-10-06T15:27:08.073Z,7.53
2022-10-06T15:29:36.783Z,9.90
2022-10-06T15:32:07.390Z,10.27
2022-10-06T15:34:38.451Z,9.23
2022-10-06T15:37:07.731Z,9.13
2022-10-06T15:39:38.669Z,9.68
2022-10-06T15:42:08.890Z,9.52
2022-10-06T15:44:38.049Z,11.18
2022-10-06T15:47:08.833Z,10.43
2022-10-06T15:49:40.607Z,9.10
2022-10-06T15:52:13.239Z,9.05
2022-10-06T15:54:43.974Z,12.93
2022-10-06T15:57:20.333Z,10.18
2022-10-06T15:59:50.056Z,13.38
2022-10-06T16:02:22.846Z,9.53
2022-10-06T16:05:17.830Z,7.72
2022-10-06T16:07:46.331Z,11.25
2022-10-06T16:10:14.938Z,9.57
2022-10-06T16:12:43.572Z,13.50
2022-10-06T16:15:12.667Z,12.13
2022-10-06T16:17:42.489Z,10.55
2022-10-06T16:20:11.708Z,7.88
2022-10-06T16:22:40.817Z,9.82
2022-10-06T16:25:10.376Z,13.48
2022-10-06T16:27:39.477Z,11.47
2022-10-06T16:30:10.139Z,12.40
2022-10-06T16:32:38.989Z,10.95
2022-10-06T16:35:13.582Z,11.18
2022-10-06T16:37:49.724Z,9.63
2022-10-06T16:40:19.213Z,11.17
2022-10-06T16:42:47.829Z,10.25
2022-10-06T16:45:16.669Z,8.48
2022-10-06T16:47:45.311Z,9.75
2022-10-06T16:50:15.494Z,6.93
2022-10-06T16:52:43.978Z,8.43
2022-10-06T16:55:12.654Z,8.27
2022-10-06T16:57:41.115Z,9.88
2022-10-06T17:00:12.523Z,8.25
2022-10-06T17:02:41.582Z,7.53
2022-10-06T17:05:10.438Z,7.33
2022-10-06T17:07:40.461Z,9.80
2022-10-06T17:10:22.592Z,6.65
2022-10-06T17:12:51.438Z,11.23
2022-10-06T17:15:19.959Z,7.68
2022-10-06T17:17:48.591Z,12.90
2022-10-06T17:20:17.170Z,8.25
2022-10-06T17:22:47.003Z,8.30
2022-10-06T17:25:15.781Z,10.35
2022-10-06T17:27:44.267Z,10.85
2022-10-06T17:30:15.593Z,7.13
2022-10-06T17:32:47.061Z,9.52
2022-10-06T17:35:15.970Z,7.47
2022-10-06T17:37:44.392Z,9.52
2022-10-06T17:40:14.455Z,12.07
2022-10-06T17:42:43.380Z,8.67
2022-10-06T17:45:12.189Z,8.30
2022-10-06T17:47:41.791Z,12.38
2022-10-06T17:50:11.255Z,5.90
2022-10-06T17:52:40.298Z,10.60
2022-10-06T17:55:10.544Z,9.70
2022-10-06T17:57:40.602Z,8.02
2022-10-06T18:00:11.222Z,10.23
2022-10-06T18:02:40.491Z,12.38
2022-10-06T18:05:11.969Z,10.73
2022-10-06T18:07:40.410Z,7.30
2022-10-06T18:10:28.003Z,9.38
2022-10-06T18:12:58.993Z,10.10
2022-10-06T18:15:27.429Z,9.50
2022-10-06T18:17:55.870Z,11.05
2022-10-06T18:20:30.154Z,14.93
2022-10-06T18:22:58.817Z,17.52
2022-10-06T18:25:28.147Z,9.65
2022-10-06T18:27:58.283Z,7.35
2022-10-06T18:30:29.437Z,10.68
2022-10-06T18:35:29.925Z,9.97
2022-10-06T18:38:44.637Z,16.05
2022-10-06T18:41:17.324Z,10.27
2022-10-06T18:43:47.340Z,9.32
2022-10-06T18:46:35.457Z,8.83
2022-10-06T18:49:10.518Z,10.93
2022-10-06T18:51:43.077Z,9.98
2022-10-06T18:54:15.230Z,7.55
2022-10-06T18:56:47.923Z,11.20
2022-10-06T18:59:19.078Z,8.13
2022-10-06T19:01:49.740Z,7.22
2022-10-06T19:04:21.437Z,10.35
2022-10-06T19:06:53.862Z,11.60
2022-10-06T19:09:25.256Z,11.63
2022-10-06T19:11:56.661Z,11.10
2022-10-06T19:14:31.657Z,10.18
2022-10-06T19:17:03.305Z,7.65
2022-10-06T19:19:34.236Z,9.23
2022-10-06T19:22:05.526Z,10.82
2022-10-06T19:24:37.207Z,8.63
2022-10-06T19:27:12.462Z,8.27
2022-10-06T19:29:46.127Z,10.20
2022-10-06T19:32:19.126Z,8.65
2022-10-06T19:34:48.532Z,13.07
2022-10-06T19:37:17.661Z,12.53
2022-10-06T19:39:50.379Z,9.65
2022-10-06T19:42:53.078Z,9.18
2022-10-06T19:45:22.928Z,13.82
2022-10-06T19:47:51.576Z,15.90
2022-10-06T19:50:20.416Z,15.97
2022-10-06T19:52:48.849Z,15.07
2022-10-06T19:55:18.449Z,11.25
2022-10-06T19:57:47.177Z,9.13
2022-10-06T20:00:16.223Z,14.98
2022-10-06T20:02:46.838Z,7.93
2022-10-06T20:05:17.437Z,8.93
2022-10-06T20:07:48.084Z,11.88
2022-10-06T20:10:17.242Z,9.70
2022-10-06T20:12:45.776Z,7.90
2022-10-06T20:15:14.444Z,12.70
2022-10-06T20:17:45.548Z,8.68
2022-10-06T20:20:16.145Z,9.90
2022-10-06T20:22:44.602Z,8.05
2022-10-06T20:25:13.047Z,8.57
2022-10-06T20:27:42.109Z,8.93
2022-10-06T20:30:12.209Z,11.95
2022-10-06T20:32:42.026Z,7.40
2022-10-06T20:35:10.780Z,14.02
2022-10-06T20:37:42.608Z,10.85
2022-10-06T20:40:29.457Z,10.67
2022-10-06T20:42:59.668Z,7.88
2022-10-06T20:45:29.788Z,9.85
2022-10-06T20:48:00.463Z,8.13
2022-10-06T20:50:31.715Z,16.63
2022-10-06T20:53:01.756Z,9.43
2022-10-06T20:55:30.214Z,8.15
2022-10-06T20:57:58.932Z,9.27
2022-10-06T21:00:27.712Z,10.18
2022-10-06T21:02:56.604Z,9.32
2022-10-06T21:05:25.563Z,10.63
2022-10-06T21:07:54.187Z,10.02
2022-10-06T21:10:24.208Z,8.88
2022-10-06T21:12:53.061Z,10.98
2022-10-06T21:15:21.868Z,8.43
2022-10-06T21:17:50.520Z,10.63
2022-10-06T21:20:19.395Z,7.30
2022-10-06T21:22:48.245Z,9.27
2022-10-06T21:25:17.337Z,10.00
2022-10-06T21:27:48.258Z,10.77
2022-10-06T21:30:17.252Z,6.80
2022-10-06T21:32:45.883Z,10.10
2022-10-06T21:35:14.536Z,11.55
2022-10-06T21:37:43.557Z,7.32
2022-10-06T21:40:12.678Z,7.50
2022-10-06T21:42:41.329Z,11.03
2022-10-06T21:45:11.830Z,8.00
2022-10-06T21:47:40.828Z,9.32
2022-10-06T21:50:10.804Z,11.13
2022-10-06T21:52:39.671Z,6.68
2022-10-06T21:55:09.365Z,9.43
2022-10-06T21:57:37.988Z,9.15
2022-10-06T22:00:11.480Z,13.45
2022-10-06T22:02:41.728Z,12.75
2022-10-06T22:05:11.102Z,10.73
2022-10-06T22:07:39.835Z,7.80
2022-10-06T22:10:09.309Z,11.15
2022-10-06T22:12:38.187Z,10.00
2022-10-06T22:15:08.225Z,7.88
2022-10-06T22:17:37.074Z,7.53
2022-10-06T22:20:09.237Z,10.80
2022-10-06T22:22:37.860Z,10.05
2022-10-06T22:25:07.240Z,9.25
2022-10-06T22:27:36.117Z,9.07
2022-10-06T22:30:05.659Z,9.15
2022-10-06T22:32:34.283Z,9.83
2022-10-06T22:35:03.783Z,9.75
2022-10-06T22:37:33.823Z,11.60
2022-10-06T22:40:07.399Z,9.60
2022-10-06T22:42:36.562Z,10.35
2022-10-06T22:45:06.340Z,15.73
2022-10-06T22:47:34.999Z,8.98
2022-10-06T22:50:03.859Z,7.47
2022-10-06T22:52:33.870Z,8.85
2022-10-06T22:55:02.739Z,7.90
2022-10-06T22:57:31.388Z,10.50
2022-10-06T23:00:00.651Z,11.43
2022-10-06T23:02:29.288Z,9.65
2022-10-06T23:04:57.922Z,10.20
2022-10-06T23:07:26.781Z,7.38
2022-10-06T23:09:56.815Z,10.33
2022-10-06T23:12:25.896Z,11.10
2022-10-06T23:14:54.524Z,9.48
2022-10-06T23:17:23.364Z,13.57
2022-10-06T23:19:52.014Z,6.85
2022-10-06T23:22:20.886Z,6.50
2022-10-06T23:24:49.536Z,10.38
2022-10-06T23:27:19.573Z,8.40
2022-10-06T23:29:48.456Z,11.95
2022-10-06T23:32:17.113Z,10.40
2022-10-06T23:34:45.773Z,10.17
2022-10-06T23:37:14.695Z,11.60
2022-10-06T23:39:43.355Z,10.60
2022-10-06T23:42:12.255Z,10.48
2022-10-06T23:44:42.562Z,14.02
2022-10-06T23:47:11.208Z,8.63
2022-10-06T23:49:41.548Z,9.55
2022-10-06T23:52:10.443Z,8.68
2022-10-06T23:54:39.340Z,13.93
2022-10-06T23:57:08.256Z,10.85
2022-10-06T23:59:37.632Z,11.70
